^^
Datos históricos de la estación: Murcia-Puente Tocinos
Diario Informe para Mayo 09, 2021 Unidades:  Métrico    Ingés   Ambas
Diario Semanal Mensual Anual
  Máxima: Mínima: Promedio:
Temperatura: 28.5 °C 18.3 °C 23.6 °C
Punto de rocio: 14.2 °C 9.7 °C 11.8 °C
Humedad: 67.9% 35.8% 48%
Velocidad viento: 29.8km/h 2.9km/h 13.7km/h
Racha viento: 56.3km/h - -
Viento- - SSE
Presión: 1011.6 hPa 1001.8 hPa -
Precipitación: 0.3 mm    
 
 
Tabla de datos para Mayo 09, 2021
Hora Temperatura Punto de rocio Presión Viento Velocidad viento Racha viento Humedad Intensidad lluvia(por hora) Nubes
00:00 19.4 °C 10.7 °C 1011.6 hPa North 3.2 km/h 4.8 km/h 57% 0.0 mm
01:34 19.2 °C 11 °C 1011.2 hPa SSO 5 km/h 7.4 km/h 59% 0.0 mm
01:39 19.2 °C 11 °C 1011.2 hPa SSO 5 km/h 8 km/h 59% 0.0 mm
01:44 19.3 °C 11.1 °C 1011.3 hPa SSO 5 km/h 8 km/h 59% 0.0 mm
01:49 19.5 °C 11.2 °C 1011.3 hPa SSO 5 km/h 8.4 km/h 59% 0.0 mm
01:54 19.6 °C 11.3 °C 1011.3 hPa Sur 5 km/h 8 km/h 58.9% 0.0 mm
01:59 19.6 °C 11.1 °C 1011.3 hPa Sur 5 km/h 8.4 km/h 58% 0.0 mm
02:04 19.4 °C 10.9 °C 1011.0 hPa Sur 5 km/h 10 km/h 57.8% 0.0 mm
02:09 19.3 °C 10.9 °C 1011.0 hPa SSE 5.5 km/h 9.7 km/h 58% 0.0 mm
02:14 19.2 °C 10.5 °C 1011.0 hPa SSE 5.8 km/h 11.1 km/h 57.1% 0.0 mm
02:19 19 °C 10.2 °C 1010.8 hPa Sur 6.1 km/h 11.3 km/h 56.7% 0.0 mm
02:24 18.8 °C 9.9 °C 1010.8 hPa Sur 6.5 km/h 11.3 km/h 56% 0.0 mm
02:29 18.8 °C 9.8 °C 1010.8 hPa Sur 6.7 km/h 11.9 km/h 56% 0.0 mm
02:34 18.8 °C 9.9 °C 1010.8 hPa Sur 6.9 km/h 11.3 km/h 56% 0.0 mm
02:39 18.9 °C 9.7 °C 1010.8 hPa SSO 6.9 km/h 11.1 km/h 55% 0.0 mm
02:44 19 °C 9.7 °C 1010.8 hPa SSO 6.9 km/h 11.9 km/h 55% 0.0 mm
02:49 19.1 °C 9.8 °C 1010.6 hPa SSO 6.9 km/h 11.3 km/h 55% 0.0 mm
02:54 19.2 °C 9.9 °C 1010.6 hPa SSO 6.9 km/h 11.1 km/h 55% 0.0 mm
02:59 19.2 °C 9.9 °C 1010.6 hPa SO 6.6 km/h 11.3 km/h 55% 0.0 mm
03:04 19.2 °C 9.9 °C 1010.6 hPa SO 6.5 km/h 11.9 km/h 55% 0.0 mm
03:09 19.2 °C 9.9 °C 1010.6 hPa Oeste 6.7 km/h 11.3 km/h 55% 0.0 mm
03:14 19.1 °C 10.1 °C 1010.6 hPa Oeste 6.9 km/h 9.7 km/h 55.9% 0.0 mm
03:19 18.9 °C 10 °C 1010.0 hPa OSO 5.7 km/h 10 km/h 56% 0.0 mm
03:24 18.8 °C 9.8 °C 1010.0 hPa OSO 5 km/h 10 km/h 56% 0.0 mm
03:29 18.8 °C 9.8 °C 1010.0 hPa OSO 6.2 km/h 13 km/h 56% 0.0 mm
03:34 18.7 °C 9.7 °C 1009.9 hPa Oeste 6.9 km/h 12.9 km/h 56% 0.0 mm
03:39 18.7 °C 9.9 °C 1009.9 hPa SO 6.6 km/h 11.3 km/h 56.5% 0.0 mm
03:44 18.8 °C 10 °C 1009.9 hPa SO 6.5 km/h 11.9 km/h 56.7% 0.0 mm
03:49 18.9 °C 9.9 °C 1009.4 hPa SO 6.7 km/h 11.9 km/h 56% 0.0 mm
03:54 19 °C 10 °C 1009.4 hPa SSO 6.9 km/h 16.7 km/h 56% 0.0 mm
03:59 19.1 °C 10.1 °C 1009.5 hPa Sur 7.8 km/h 16.1 km/h 56% 0.0 mm
04:04 19.2 °C 10.1 °C 1009.5 hPa SSO 8.4 km/h 12.9 km/h 55.7% 0.0 mm
04:09 19.3 °C 10 °C 1009.5 hPa SSE 7.5 km/h 16.4 km/h 55% 0.0 mm
04:14 18.9 °C 10.1 °C 1009.5 hPa Sur 6.9 km/h 17.2 km/h 56.6% 0.0 mm
04:19 18.5 °C 10 °C 1009.3 hPa SSO 8.8 km/h 17.7 km/h 58% 0.0 mm
04:24 18.4 °C 10 °C 1009.3 hPa Sur 10 km/h 14.5 km/h 58% 0.0 mm
04:29 18.5 °C 10 °C 1009.3 hPa Sur 7.7 km/h 8.4 km/h 58% 0.0 mm
04:34 18.6 °C 10.2 °C 1009.3 hPa Sur 5.8 km/h 9.3 km/h 58% 0.0 mm
04:39 18.6 °C 10.2 °C 1009.3 hPa SO 5.8 km/h 9.7 km/h 57.9% 0.0 mm
04:44 18.7 °C 10 °C 1009.3 hPa SO 5.8 km/h 9.7 km/h 57% 0.0 mm
04:49 18.8 °C 10.1 °C 1009.1 hPa Sur 5.3 km/h 8 km/h 57% 0.0 mm
04:54 18.8 °C 10 °C 1009.1 hPa SSE 5 km/h 8 km/h 56.3% 0.0 mm
04:59 18.9 °C 9.9 °C 1009.1 hPa OSO 4.2 km/h 9.5 km/h 56% 0.0 mm
05:04 18.9 °C 10 °C 1008.7 hPa Oeste 3.9 km/h 9.7 km/h 56% 0.0 mm
05:09 18.9 °C 9.9 °C 1008.7 hPa Oeste 5.1 km/h 9.7 km/h 56% 0.0 mm
05:14 18.9 °C 9.9 °C 1008.7 hPa Oeste 5.8 km/h 5.6 km/h 56% 0.0 mm
05:19 18.9 °C 9.9 °C 1008.4 hPa SSO 4.1 km/h 7.4 km/h 56% 0.0 mm
05:24 19 °C 9.8 °C 1008.4 hPa SSO 2.9 km/h 8 km/h 55.2% 0.0 mm
05:29 19.1 °C 9.9 °C 1008.4 hPa OSO 3.4 km/h 8.7 km/h 55% 0.0 mm
05:34 19.3 °C 10 °C 1007.9 hPa SSO 3.9 km/h 10 km/h 55% 0.0 mm
05:39 19.4 °C 9.9 °C 1007.9 hPa Sur 5.3 km/h 11.9 km/h 54.1% 0.0 mm
05:44 19.4 °C 10 °C 1008.5 hPa SSE 6.4 km/h 11.9 km/h 54.6% 0.0 mm
05:49 19.3 °C 10.1 °C 1008.5 hPa Sur 7.1 km/h 14 km/h 55.3% 0.0 mm
05:54 19.2 °C 10.2 °C 1008.5 hPa Sur 7.6 km/h 15.6 km/h 56.2% 0.0 mm
05:59 18.9 °C 10.2 °C 1008.8 hPa SSE 9.3 km/h 16.1 km/h 57.2% 0.0 mm
06:04 18.8 °C 10.2 °C 1008.8 hPa Sur 10.3 km/h 16.1 km/h 57.6% 0.0 mm
06:09 18.9 °C 10.2 °C 1008.8 hPa SSO 9.8 km/h 14.8 km/h 57% 0.0 mm
06:14 19 °C 10.1 °C 1009.1 hPa SO 9.5 km/h 14.5 km/h 56.2% 0.0 mm
06:19 19.1 °C 10.1 °C 1009.1 hPa SO 8.8 km/h 14.5 km/h 56% 0.0 mm
06:24 19.2 °C 10.2 °C 1009.1 hPa SO 8.4 km/h 11.1 km/h 56% 0.0 mm
06:29 19.2 °C 10.3 °C 1009.4 hPa OSO 6.8 km/h 13 km/h 56.5% 0.0 mm
06:34 19.1 °C 10.4 °C 1009.4 hPa Oeste 5.8 km/h 12.9 km/h 57% 0.0 mm
06:39 19.1 °C 10.4 °C 1009.4 hPa Oeste 5.1 km/h 8 km/h 57% 0.0 mm
06:44 18.9 °C 10.2 °C 1009.4 hPa SO 4.7 km/h 8 km/h 57% 0.0 mm
06:49 18.9 °C 10.2 °C 1009.1 hPa SO 3.8 km/h 8 km/h 57% 0.0 mm
06:54 18.9 °C 10.3 °C 1009.1 hPa OSO 3.2 km/h 5.8 km/h 57.4% 0.0 mm
06:59 18.9 °C 10.4 °C 1009.1 hPa NNO 3 km/h 7.6 km/h 57.8% 0.0 mm
07:04 18.8 °C 10.6 °C 1008.5 hPa NNE 2.9 km/h 8 km/h 58.9% 0.0 mm
07:09 18.7 °C 10.7 °C 1008.5 hPa Este 4.1 km/h 11.9 km/h 59.4% 0.0 mm
07:14 18.5 °C 10.6 °C 1008.5 hPa ENE 5 km/h 11.3 km/h 60.2% 0.0 mm
07:19 18.3 °C 10.6 °C 1008.1 hPa NE 5 km/h 11.3 km/h 60.9% 0.0 mm
07:24 18.3 °C 10.5 °C 1008.1 hPa Este 5 km/h 10 km/h 60.3% 0.0 mm
07:29 18.3 °C 10.4 °C 1008.1 hPa NE 4.8 km/h 9.7 km/h 60% 0.0 mm
07:34 18.3 °C 10.3 °C 1007.7 hPa ENE 4.7 km/h 9.3 km/h 59.5% 0.0 mm
07:39 18.4 °C 10.3 °C 1007.7 hPa NE 4.6 km/h 9.7 km/h 59% 0.0 mm
07:44 18.5 °C 10.4 °C 1007.9 hPa NNO 4.7 km/h 9.3 km/h 59.3% 0.0 mm
07:49 18.5 °C 10.6 °C 1007.9 hPa ONO 4.2 km/h 7.4 km/h 59.8% 0.0 mm
07:54 18.5 °C 10.8 °C 1007.9 hPa NO 3.9 km/h 8 km/h 61% 0.0 mm
07:59 18.4 °C 10.5 °C 1007.9 hPa NNE 4.3 km/h 13.7 km/h 60.1% 0.0 mm
08:04 18.5 °C 10.5 °C 1007.4 hPa NE 4.6 km/h 14.5 km/h 59.8% 0.0 mm
08:09 18.6 °C 10.4 °C 1007.4 hPa NE 5.7 km/h 11.3 km/h 59% 0.0 mm
08:14 18.7 °C 10.5 °C 1007.4 hPa Este 6.5 km/h 9.5 km/h 59% 0.0 mm
08:19 18.8 °C 10.6 °C 1007.4 hPa SE 5.4 km/h 11.9 km/h 59% 0.0 mm
08:24 18.8 °C 10.5 °C 1007.4 hPa SE 4.7 km/h 11.3 km/h 58.4% 0.0 mm
08:29 19 °C 10.5 °C 1007.8 hPa ESE 5.6 km/h 13 km/h 57.8% 0.0 mm
08:34 19.3 °C 10.4 °C 1007.8 hPa ESE 6.5 km/h 14 km/h 56.6% 0.0 mm
08:39 19.6 °C 10.5 °C 1007.8 hPa Este 8.4 km/h 14.8 km/h 56% 0.0 mm
08:44 19.9 °C 10.4 °C 1007.8 hPa ENE 9.5 km/h 14.8 km/h 54.4% 0.0 mm
08:49 20.2 °C 10.1 °C 1007.8 hPa NNE 8.8 km/h 14.5 km/h 52.2% 0.0 mm
08:54 20.5 °C 10.8 °C 1007.8 hPa NO 8.4 km/h 13.7 km/h 53.9% 0.0 mm
08:59 20.1 °C 10.7 °C 1008.0 hPa North 8.4 km/h 14.8 km/h 54.8% 0.0 mm
09:04 20.2 °C 10.8 °C 1008.0 hPa SO 8.4 km/h 14.5 km/h 54.9% 0.3 mm
09:09 20.2 °C 11.1 °C 1008.0 hPa SE 5.8 km/h 10 km/h 55.7% 0.3 mm
09:14 20.3 °C 11 °C 1008.0 hPa NE 3.9 km/h 14.8 km/h 55.2% 0.3 mm
09:19 20.4 °C 11.9 °C 1007.7 hPa NE 5.4 km/h 14.5 km/h 58.3% 0.3 mm
09:24 20 °C 12.4 °C 1007.7 hPa NNE 6.5 km/h 10 km/h 61.9% 0.3 mm
09:29 19.4 °C 12.6 °C 1008.0 hPa NE 6.5 km/h 11.9 km/h 65% 0.3 mm
09:34 19 °C 12.7 °C 1008.0 hPa NE 6.5 km/h 11.3 km/h 66.7% 0.3 mm
09:39 19.1 °C 13 °C 1008.0 hPa Este 6.7 km/h 11.9 km/h 67.9% 0.3 mm
09:44 19.4 °C 13.1 °C 1008.1 hPa Este 6.9 km/h 13 km/h 67% 0.3 mm
09:49 19.8 °C 13.3 °C 1008.1 hPa ENE 7.3 km/h 12.9 km/h 66.3% 0.3 mm
09:54 20.3 °C 13.3 °C 1008.1 hPa NNE 7.6 km/h 10 km/h 64.4% 0.3 mm
09:59 20.8 °C 13.5 °C 1008.1 hPa NNE 6.8 km/h 11.1 km/h 63% 0.3 mm
10:04 21.2 °C 13.8 °C 1007.7 hPa NE 6.5 km/h 13 km/h 62.6% 0.3 mm
10:09 21.5 °C 13.9 °C 1007.7 hPa NNE 6.5 km/h 12.9 km/h 62% 0.0 mm
10:14 21.9 °C 14 °C 1007.9 hPa NNE 6.5 km/h 13 km/h 60.8% 0.0 mm
10:19 22.5 °C 14.1 °C 1007.9 hPa NNE 6.7 km/h 12.9 km/h 59.1% 0.0 mm
10:24 22.9 °C 13.7 °C 1007.9 hPa NE 6.9 km/h 13 km/h 56.1% 0.0 mm
10:29 23.2 °C 13.6 °C 1007.9 hPa ENE 6.6 km/h 19 km/h 54.9% 0.0 mm
10:34 23.4 °C 12.7 °C 1007.8 hPa ENE 6.5 km/h 19.3 km/h 51% 0.0 mm
10:39 24 °C 12.7 °C 1007.8 hPa Este 7.1 km/h 24.5 km/h 49.2% 0.0 mm
10:44 24.5 °C 11.9 °C 1007.8 hPa ESE 7.6 km/h 24.1 km/h 45.5% 0.0 mm
10:49 24.8 °C 12 °C 1007.8 hPa Este 11.2 km/h 24.1 km/h 44.9% 0.0 mm
10:54 24.9 °C 11.9 °C 1007.8 hPa ESE 14 km/h 22.5 km/h 44.3% 0.0 mm
10:59 24.8 °C 12.3 °C 1007.8 hPa Este 12.8 km/h 25.9 km/h 45.7% 0.0 mm
11:04 24.6 °C 12.4 °C 1007.8 hPa ENE 12.2 km/h 25.7 km/h 46.6% 0.0 mm
11:09 24.7 °C 12.6 °C 1007.8 hPa ENE 11.6 km/h 22.5 km/h 47% 0.0 mm
11:14 24.8 °C 13 °C 1007.8 hPa Este 11.1 km/h 18.5 km/h 47.9% 0.0 mm
11:19 24.9 °C 13.2 °C 1007.7 hPa NE 10.1 km/h 19.3 km/h 48.1% 0.0 mm
11:24 25.2 °C 13.2 °C 1007.7 hPa Este 9.5 km/h 16.7 km/h 47.6% 0.0 mm
11:29 25.3 °C 12.8 °C 1007.7 hPa ESE 8.4 km/h 17.2 km/h 46.1% 0.0 mm
11:34 25.3 °C 12.3 °C 1007.6 hPa ESE 7.6 km/h 22.2 km/h 44.3% 0.0 mm
11:39 25.5 °C 12.7 °C 1007.6 hPa SE 10.1 km/h 25.1 km/h 45% 0.0 mm
11:44 25.4 °C 12.8 °C 1007.6 hPa SE 11.9 km/h 35.9 km/h 45.4% 0.0 mm
11:49 25.3 °C 13.1 °C 1007.6 hPa SE 13.7 km/h 35.4 km/h 46.8% 0.0 mm
11:54 25.3 °C 12.8 °C 1007.6 hPa SE 14.8 km/h 38.9 km/h 46% 0.0 mm
11:59 25.3 °C 12.3 °C 1007.6 hPa SE 14.1 km/h 38.6 km/h 44.3% 0.0 mm
12:04 25.4 °C 12.5 °C 1007.5 hPa SE 13.7 km/h 33.3 km/h 44.7% 0.0 mm
12:09 25.4 °C 12.5 °C 1007.5 hPa SE 15.4 km/h 33.8 km/h 44.6% 0.0 mm
12:14 25.3 °C 12.6 °C 1007.6 hPa SE 16.4 km/h 32.2 km/h 45% 0.0 mm
12:19 25.5 °C 12.6 °C 1007.6 hPa SE 18.3 km/h 32.2 km/h 44.7% 0.0 mm
12:24 25.7 °C 12.6 °C 1007.6 hPa SE 19.8 km/h 43.1 km/h 44.2% 0.0 mm
12:29 25.4 °C 12.4 °C 1007.6 hPa SE 21.3 km/h 43.5 km/h 44.4% 0.0 mm
12:34 25.3 °C 12.8 °C 1007.3 hPa SE 22.5 km/h 40.2 km/h 45.8% 0.0 mm
12:39 25.3 °C 12.8 °C 1007.3 hPa SE 24.2 km/h 38.6 km/h 46% 0.0 mm
12:44 25.5 °C 12.8 °C 1007.3 hPa SE 25.1 km/h 39.6 km/h 45.4% 0.0 mm
12:49 25.5 °C 13.1 °C 1007.2 hPa SE 25.7 km/h 40.2 km/h 46% 0.0 mm
12:54 25.6 °C 13.2 °C 1007.2 hPa SE 26.2 km/h 38.6 km/h 46.2% 0.0 mm
12:59 25.8 °C 13.4 °C 1007.2 hPa SSE 22 km/h 35.4 km/h 46.1% 0.0 mm
13:04 25.9 °C 13.3 °C 1006.9 hPa SE 19.8 km/h 33.3 km/h 45.7% 0.0 mm
13:09 25.9 °C 13.4 °C 1006.9 hPa SSE 20 km/h 35.9 km/h 46% 0.0 mm
13:14 25.9 °C 13.3 °C 1007.0 hPa SSE 20.1 km/h 35.4 km/h 45.9% 0.0 mm
13:19 25.9 °C 13.4 °C 1007.0 hPa SSE 20.1 km/h 31.5 km/h 46.2% 0.0 mm
13:24 26.1 °C 13.4 °C 1007.0 hPa SE 20.1 km/h 32.2 km/h 45.6% 0.0 mm
13:29 26.3 °C 13.7 °C 1007.0 hPa SE 18.9 km/h 29.8 km/h 45.9% 0.0 mm
13:34 26.3 °C 13.5 °C 1006.8 hPa SE 18 km/h 30.6 km/h 45.2% 0.0 mm
13:39 26.5 °C 13.5 °C 1006.8 hPa SE 17.6 km/h 29 km/h 44.9% 0.0 mm
13:44 26.8 °C 13.5 °C 1006.8 hPa SE 17.2 km/h 27.8 km/h 44% 0.0 mm
13:49 26.8 °C 13.7 °C 1006.5 hPa SE 16.5 km/h 34.3 km/h 44.6% 0.0 mm
13:54 26.9 °C 13.5 °C 1006.5 hPa SE 16.1 km/h 37.8 km/h 43.7% 0.0 mm
13:59 26.7 °C 13.4 °C 1006.5 hPa SSE 19.4 km/h 37 km/h 44% 0.0 mm
14:04 26.8 °C 13.5 °C 1006.2 hPa SSE 21.7 km/h 35.2 km/h 44.1% 0.0 mm
14:09 26.8 °C 13.7 °C 1006.2 hPa SSE 21.3 km/h 35.4 km/h 44.5% 0.0 mm
14:14 26.8 °C 13.9 °C 1006.2 hPa SE 20.9 km/h 35.4 km/h 45% 0.0 mm
14:19 26.9 °C 14 °C 1005.9 hPa SE 21.4 km/h 34.3 km/h 45.1% 0.0 mm
14:24 26.9 °C 14 °C 1005.9 hPa SSE 21.7 km/h 39.6 km/h 45.2% 0.0 mm
14:29 26.7 °C 13.9 °C 1005.9 hPa SSE 23.8 km/h 46.3 km/h 45.2% 0.0 mm
14:34 27 °C 14.1 °C 1005.7 hPa SSE 25.1 km/h 46.7 km/h 45.3% 0.0 mm
14:39 27.1 °C 14.1 °C 1005.7 hPa SSE 24.3 km/h 50.1 km/h 44.8% 0.0 mm
14:44 27 °C 14 °C 1005.7 hPa SE 23.7 km/h 49.9 km/h 44.9% 0.0 mm
14:49 27 °C 13.9 °C 1005.5 hPa SSE 26.3 km/h 49.2 km/h 44.5% 0.0 mm
14:54 27.2 °C 13.7 °C 1005.5 hPa SSE 28.2 km/h 50.1 km/h 43.5% 0.0 mm
14:59 26.9 °C 13.9 °C 1005.5 hPa SE 27.5 km/h 49.9 km/h 44.8% 0.0 mm
15:04 26.9 °C 13.8 °C 1005.4 hPa SSE 27 km/h 38.9 km/h 44.6% 0.0 mm
15:09 26.9 °C 14 °C 1005.4 hPa SE 27 km/h 42.6 km/h 45.3% 0.0 mm
15:14 27 °C 14.2 °C 1005.4 hPa SE 27 km/h 41.8 km/h 45.3% 0.0 mm
15:19 27.3 °C 14 °C 1005.0 hPa SE 24.5 km/h 46.3 km/h 44.1% 0.0 mm
15:24 27.6 °C 14 °C 1005.0 hPa SSE 22.5 km/h 46.7 km/h 43.4% 0.0 mm
15:29 27.6 °C 13.7 °C 1005.0 hPa SE 21.6 km/h 44.9 km/h 42.3% 0.0 mm
15:34 27.6 °C 13.3 °C 1004.7 hPa SE 20.9 km/h 45.1 km/h 41.4% 0.0 mm
15:39 27.7 °C 13.6 °C 1004.7 hPa SSE 24.2 km/h 44.4 km/h 42% 0.0 mm
15:44 27.8 °C 13.2 °C 1004.7 hPa SSE 26.2 km/h 48.1 km/h 40.8% 0.0 mm
15:49 27.9 °C 13.1 °C 1004.6 hPa SSE 26.2 km/h 48.3 km/h 40% 0.0 mm
15:54 28.1 °C 13.2 °C 1004.6 hPa SE 26.2 km/h 41.2 km/h 39.9% 0.0 mm
15:59 28 °C 13 °C 1004.6 hPa SE 24.6 km/h 51.8 km/h 39.6% 0.0 mm
16:04 28 °C 12.7 °C 1004.3 hPa SSE 23.7 km/h 51.5 km/h 39% 0.0 mm
16:09 27.8 °C 12.8 °C 1004.3 hPa SSE 25.8 km/h 50.4 km/h 39.5% 0.0 mm
16:14 27.7 °C 12.5 °C 1004.3 hPa SSE 27.4 km/h 51.8 km/h 39.2% 0.0 mm
16:19 27.8 °C 12.5 °C 1004.0 hPa SSE 28.4 km/h 55.5 km/h 39% 0.0 mm
16:24 27.6 °C 12.4 °C 1004.0 hPa SSE 29.1 km/h 56.3 km/h 39% 0.0 mm
16:29 27.6 °C 12.4 °C 1004.0 hPa SE 28.8 km/h 51.5 km/h 39% 0.0 mm
16:34 27.8 °C 12.6 °C 1003.9 hPa SSE 28.7 km/h 50.4 km/h 39% 0.0 mm
16:39 27.7 °C 12.4 °C 1003.9 hPa SE 27.3 km/h 50.1 km/h 39% 0.0 mm
16:44 27.7 °C 12.4 °C 1003.9 hPa SE 26.2 km/h 49.9 km/h 38.8% 0.0 mm
16:49 27.8 °C 12.2 °C 1003.4 hPa SE 26.2 km/h 48.4 km/h 38% 0.0 mm
16:54 27.8 °C 12.2 °C 1003.4 hPa SE 26.2 km/h 49.2 km/h 38% 0.0 mm
16:59 28 °C 12.3 °C 1003.4 hPa SE 27.7 km/h 50.1 km/h 38% 0.0 mm
17:04 28.1 °C 12.4 °C 1003.0 hPa SE 28.7 km/h 48.3 km/h 38% 0.0 mm
17:09 28.2 °C 12.1 °C 1003.0 hPa SE 26.4 km/h 44.4 km/h 37% 0.0 mm
17:14 28.2 °C 12.1 °C 1003.0 hPa SE 25.1 km/h 46.8 km/h 37% 0.0 mm
17:19 28.2 °C 12 °C 1002.9 hPa SE 26.5 km/h 50.4 km/h 36.8% 0.0 mm
17:24 28.2 °C 11.8 °C 1002.9 hPa SE 27.4 km/h 50.1 km/h 36.2% 0.0 mm
17:29 28.2 °C 11.9 °C 1002.9 hPa SE 28.8 km/h 44.4 km/h 36.5% 0.0 mm
17:34 28.2 °C 11.8 °C 1002.8 hPa SE 29.8 km/h 51.8 km/h 36.1% 0.0 mm
17:39 28.3 °C 12.1 °C 1002.8 hPa SE 28.2 km/h 51.5 km/h 36.8% 0.0 mm
17:44 28.3 °C 11.8 °C 1002.8 hPa SE 27.4 km/h 46.7 km/h 36% 0.0 mm
17:49 28.3 °C 11.8 °C 1002.6 hPa SE 27.2 km/h 48.4 km/h 36% 0.0 mm
17:54 28.4 °C 11.8 °C 1002.6 hPa SE 27 km/h 55.5 km/h 35.8% 0.0 mm
17:59 28.3 °C 12 °C 1002.6 hPa SSE 26.2 km/h 56.3 km/h 36.4% 0.0 mm
18:04 28.4 °C 12.1 °C 1002.4 hPa SE 25.6 km/h 41.8 km/h 36.7% 0.0 mm
18:09 28.5 °C 12.1 °C 1002.4 hPa SE 22.7 km/h 40.2 km/h 36.3% 0.0 mm
18:14 28.4 °C 12.3 °C 1002.4 hPa SE 20.9 km/h 35.4 km/h 37% 0.0 mm
18:19 28.4 °C 12.3 °C 1002.3 hPa SE 20.3 km/h 40.7 km/h 37% 0.0 mm
18:24 28.4 °C 12.3 °C 1002.3 hPa SE 19.8 km/h 40.2 km/h 37% 0.0 mm
18:29 28.4 °C 12.3 °C 1002.3 hPa SE 20.5 km/h 43.1 km/h 37% 0.0 mm
18:34 28.3 °C 12.6 °C 1002.3 hPa SE 20.9 km/h 46.8 km/h 37.8% 0.0 mm
18:39 28.1 °C 12.8 °C 1002.3 hPa SE 23.7 km/h 51.8 km/h 38.8% 0.0 mm
18:44 28.1 °C 12.8 °C 1002.3 hPa SE 25.6 km/h 51.5 km/h 39% 0.0 mm
18:49 28.1 °C 13 °C 1002.1 hPa SE 26.7 km/h 42.6 km/h 39.3% 0.0 mm
18:54 28 °C 13.2 °C 1002.1 hPa SE 27.4 km/h 41.8 km/h 40.1% 0.0 mm
18:59 27.8 °C 13.4 °C 1002.1 hPa SE 24.9 km/h 39.6 km/h 41% 0.0 mm
19:04 27.8 °C 13.4 °C 1002.0 hPa SE 23.3 km/h 40.2 km/h 41.1% 0.0 mm
19:09 27.8 °C 13 °C 1002.0 hPa SE 21.2 km/h 48.4 km/h 40% 0.0 mm
19:14 27.9 °C 12.7 °C 1002.0 hPa SE 19.8 km/h 48.3 km/h 39% 0.0 mm
19:19 27.9 °C 12.7 °C 1001.9 hPa SE 20 km/h 42.3 km/h 39% 0.0 mm
19:24 27.9 °C 12.6 °C 1001.9 hPa SE 20.1 km/h 42.6 km/h 38.7% 0.0 mm
19:29 27.9 °C 12.7 °C 1001.9 hPa SE 20.1 km/h 41.8 km/h 39% 0.0 mm
19:34 27.8 °C 12.7 °C 1001.8 hPa SE 20.1 km/h 37 km/h 39.4% 0.0 mm
19:39 27.6 °C 12.8 °C 1001.8 hPa SSE 19.4 km/h 37 km/h 40% 0.0 mm
19:44 27.6 °C 12.8 °C 1002.0 hPa SSE 19 km/h 27.8 km/h 40% 0.0 mm
19:49 27.6 °C 13 °C 1002.0 hPa SSE 16.9 km/h 27.4 km/h 40.6% 0.0 mm
19:54 27.4 °C 13 °C 1002.0 hPa SSE 15.6 km/h 27.8 km/h 41% 0.0 mm
19:59 27.4 °C 13 °C 1002.0 hPa SSE 14.6 km/h 27.4 km/h 41% 0.0 mm
20:04 27.6 °C 12.8 °C 1002.0 hPa Sur 14 km/h 22.2 km/h 40.2% 0.0 mm
20:09 27.7 °C 12.8 °C 1002.0 hPa Sur 13.8 km/h 24.1 km/h 39.7% 0.0 mm
20:14 27.7 °C 12.9 °C 1002.2 hPa Sur 13.7 km/h 25.9 km/h 40% 0.0 mm
20:19 27.6 °C 12.8 °C 1002.2 hPa Sur 13.9 km/h 29.6 km/h 40% 0.0 mm
20:24 27.6 °C 12.8 °C 1002.2 hPa Sur 14 km/h 29 km/h 40% 0.0 mm
20:29 27.5 °C 12.7 °C 1002.5 hPa Sur 14 km/h 26.2 km/h 40% 0.0 mm
20:34 27.3 °C 12.7 °C 1002.5 hPa Sur 14 km/h 25.7 km/h 40.3% 0.0 mm
20:39 27.2 °C 12.8 °C 1002.5 hPa SSE 15 km/h 29.6 km/h 41% 0.0 mm
20:44 27.2 °C 12.8 °C 1002.8 hPa Sur 15.6 km/h 29 km/h 41.1% 0.0 mm
20:49 27.2 °C 12.8 °C 1002.8 hPa Sur 13.3 km/h 22.5 km/h 41% 0.0 mm
20:54 27.2 °C 12.8 °C 1002.8 hPa Sur 11.9 km/h 24.1 km/h 41% 0.0 mm
20:59 27.2 °C 12.9 °C 1003.0 hPa SSO 13.1 km/h 24.1 km/h 41.4% 0.0 mm
21:04 27 °C 13 °C 1003.0 hPa SSO 14 km/h 20.9 km/h 42% 0.0 mm
21:09 26.9 °C 13 °C 1003.0 hPa Sur 13.4 km/h 20.9 km/h 42.3% 0.0 mm
21:14 26.8 °C 13.2 °C 1003.2 hPa Sur 13 km/h 24.1 km/h 43.2% 0.0 mm
21:19 26.7 °C 13.4 °C 1003.2 hPa SSO 13.6 km/h 24.1 km/h 44% 0.0 mm
21:24 26.5 °C 13.4 °C 1003.2 hPa SSO 14 km/h 19.3 km/h 44.7% 0.0 mm
21:29 26.3 °C 13.5 °C 1003.5 hPa Sur 11.8 km/h 17.2 km/h 45% 0.0 mm
21:34 26.3 °C 13.4 °C 1003.5 hPa Sur 10.3 km/h 17.7 km/h 45% 0.0 mm
21:39 26.2 °C 13.3 °C 1003.5 hPa Sur 10.3 km/h 16.7 km/h 45% 0.0 mm
21:44 26.2 °C 12.8 °C 1003.6 hPa Sur 10.3 km/h 17.2 km/h 43.6% 0.0 mm
21:49 26.2 °C 12.7 °C 1003.6 hPa Sur 10.3 km/h 17.7 km/h 43.3% 0.0 mm
21:54 26.2 °C 12.4 °C 1003.6 hPa SSO 10.3 km/h 14.8 km/h 42.5% 0.0 mm
21:59 26.2 °C 12.3 °C 1004.3 hPa SSO 9 km/h 14.5 km/h 42% 0.0 mm
22:04 26.2 °C 12.1 °C 1004.3 hPa SSO 8.4 km/h 14.8 km/h 41.6% 0.0 mm
22:09 26.2 °C 11.9 °C 1004.3 hPa SSO 8.4 km/h 16.1 km/h 41% 0.0 mm
22:14 26.2 °C 11.8 °C 1004.6 hPa SSO 8.4 km/h 16.7 km/h 40.6% 0.0 mm
22:19 26.2 °C 12.1 °C 1004.6 hPa ONO 8.6 km/h 16.1 km/h 41.6% 0.0 mm
22:24 25.9 °C 11.8 °C 1004.6 hPa OSO 8.7 km/h 19.8 km/h 41.3% 0.0 mm
22:29 25.8 °C 11.5 °C 1005.4 hPa ONO 8.7 km/h 20.9 km/h 40.8% 0.0 mm
22:34 25.7 °C 11.4 °C 1005.4 hPa OSO 8.7 km/h 22.2 km/h 41% 0.0 mm
22:39 25.4 °C 11.2 °C 1005.4 hPa Oeste 8.7 km/h 22.5 km/h 41% 0.0 mm
22:44 25.2 °C 11 °C 1005.8 hPa Oeste 8.7 km/h 30.9 km/h 41% 0.0 mm
22:49 24.8 °C 10.7 °C 1005.8 hPa ONO 11.5 km/h 42.3 km/h 41% 0.0 mm
22:54 24.6 °C 10.7 °C 1005.8 hPa Oeste 13.7 km/h 42.6 km/h 41.8% 0.0 mm
22:59 24.3 °C 10.7 °C 1006.1 hPa ONO 16.7 km/h 41.8 km/h 42.3% 0.0 mm
23:04 24.1 °C 10.7 °C 1006.1 hPa ONO 18.4 km/h 34.3 km/h 43% 0.0 mm
23:09 23.9 °C 10.6 °C 1006.1 hPa ONO 20.3 km/h 38.9 km/h 43% 0.0 mm
23:14 23.8 °C 10.7 °C 1006.4 hPa ONO 21.7 km/h 44.9 km/h 43.8% 0.0 mm
23:19 23.7 °C 10.7 °C 1006.4 hPa ONO 21.3 km/h 37 km/h 44% 0.0 mm
23:24 23.6 °C 10.6 °C 1006.4 hPa ONO 20.9 km/h 37 km/h 44% 0.0 mm
23:29 23.4 °C 10.8 °C 1006.6 hPa ONO 20.4 km/h 33.8 km/h 44.8% 0.0 mm
23:34 23.4 °C 10.8 °C 1006.6 hPa ONO 20.1 km/h 29.6 km/h 45% 0.0 mm
23:39 23.3 °C 10.7 °C 1006.6 hPa ONO 17.8 km/h 27.4 km/h 45% 0.0 mm
23:44 23.3 °C 10.7 °C 1006.8 hPa ONO 16.4 km/h 22.5 km/h 45% 0.0 mm
23:49 23.2 °C 10.6 °C 1006.8 hPa ONO 13.8 km/h 20.9 km/h 45% 0.0 mm
23:54 23.2 °C 10.6 °C 1006.8 hPa ONO 11.9 km/h 20.4 km/h 45% 0.0 mm
23:59 23.1 °C 10.5 °C 1006.9 hPa ONO 10.8 km/h 22.5 km/h 45% 0.0 mm
Murcia-Puente Tocinos, España
Compliments of Weather Underground - 3.5 mb

La estación de MeteoMurcia.com, publica sus datos en los siguientes proyectos:

Weather Underground PWS IMURCIAP2 Meteoclimatic www.awekas.at

W3Counter
Web Analytics